sensor_id;sensor_type;location;lat;lon;timestamp;temperature;humidity
75648;DHT22;64238;51.466;7.260;2022-12-15T00:02:25;22.40;30.40
75648;DHT22;64238;51.466;7.260;2022-12-15T00:05:09;22.40;30.40
75648;DHT22;64238;51.466;7.260;2022-12-15T00:07:53;22.40;30.10
75648;DHT22;64238;51.466;7.260;2022-12-15T00:10:37;22.40;30.30
75648;DHT22;64238;51.466;7.260;2022-12-15T00:13:21;22.40;29.90
75648;DHT22;64238;51.466;7.260;2022-12-15T00:16:06;22.40;29.90
75648;DHT22;64238;51.466;7.260;2022-12-15T00:18:50;22.40;30.30
75648;DHT22;64238;51.466;7.260;2022-12-15T00:21:35;22.40;30.20
75648;DHT22;64238;51.466;7.260;2022-12-15T00:24:19;22.40;30.10
75648;DHT22;64238;51.466;7.260;2022-12-15T00:27:03;22.30;30.20
75648;DHT22;64238;51.466;7.260;2022-12-15T00:29:47;22.30;30.20
75648;DHT22;64238;51.466;7.260;2022-12-15T00:32:31;22.30;30.20
75648;DHT22;64238;51.466;7.260;2022-12-15T00:35:16;22.40;29.90
75648;DHT22;64238;51.466;7.260;2022-12-15T00:38:13;22.30;30.20
75648;DHT22;64238;51.466;7.260;2022-12-15T00:40:57;22.40;30.10
75648;DHT22;64238;51.466;7.260;2022-12-15T00:43:25;22.40;30.20
75648;DHT22;64238;51.466;7.260;2022-12-15T00:45:50;22.40;30.10
75648;DHT22;64238;51.466;7.260;2022-12-15T00:48:34;22.40;29.90
75648;DHT22;64238;51.466;7.260;2022-12-15T00:51:00;22.40;30.10
75648;DHT22;64238;51.466;7.260;2022-12-15T00:53:25;22.30;30.20
75648;DHT22;64238;51.466;7.260;2022-12-15T00:56:09;22.30;30.20
75648;DHT22;64238;51.466;7.260;2022-12-15T00:58:53;22.30;29.80
75648;DHT22;64238;51.466;7.260;2022-12-15T01:01:38;22.40;30.10
75648;DHT22;64238;51.466;7.260;2022-12-15T01:04:22;22.30;29.80
75648;DHT22;64238;51.466;7.260;2022-12-15T01:07:06;22.40;29.80
75648;DHT22;64238;51.466;7.260;2022-12-15T01:09:50;22.30;29.90
75648;DHT22;64238;51.466;7.260;2022-12-15T01:12:34;22.30;29.90
75648;DHT22;64238;51.466;7.260;2022-12-15T01:15:18;22.40;30.10
75648;DHT22;64238;51.466;7.260;2022-12-15T01:18:02;22.30;30.10
75648;DHT22;64238;51.466;7.260;2022-12-15T01:20:55;22.30;29.80
75648;DHT22;64238;51.466;7.260;2022-12-15T01:23:20;22.30;30.00
75648;DHT22;64238;51.466;7.260;2022-12-15T01:25:46;22.30;30.00
75648;DHT22;64238;51.466;7.260;2022-12-15T01:28:14;22.30;29.90
75648;DHT22;64238;51.466;7.260;2022-12-15T01:30:39;22.40;30.00
75648;DHT22;64238;51.466;7.260;2022-12-15T01:33:05;22.30;29.70
75648;DHT22;64238;51.466;7.260;2022-12-15T01:35:30;22.30;29.90
75648;DHT22;64238;51.466;7.260;2022-12-15T01:37:56;22.30;29.90
75648;DHT22;64238;51.466;7.260;2022-12-15T01:40:21;22.40;30.00
75648;DHT22;64238;51.466;7.260;2022-12-15T01:43:12;22.30;29.90
75648;DHT22;64238;51.466;7.260;2022-12-15T01:45:59;22.30;30.30
75648;DHT22;64238;51.466;7.260;2022-12-15T01:51:13;22.30;29.70
75648;DHT22;64238;51.466;7.260;2022-12-15T01:53:52;22.30;29.80
75648;DHT22;64238;51.466;7.260;2022-12-15T01:56:19;22.40;29.90
75648;DHT22;64238;51.466;7.260;2022-12-15T01:58:47;22.30;29.80
75648;DHT22;64238;51.466;7.260;2022-12-15T02:01:13;22.30;29.90
75648;DHT22;64238;51.466;7.260;2022-12-15T02:03:40;22.30;29.70
75648;DHT22;64238;51.466;7.260;2022-12-15T02:06:07;22.30;29.70
75648;DHT22;64238;51.466;7.260;2022-12-15T02:08:34;22.30;29.90
75648;DHT22;64238;51.466;7.260;2022-12-15T02:11:08;22.30;29.70
75648;DHT22;64238;51.466;7.260;2022-12-15T02:13:51;22.20;29.90
75648;DHT22;64238;51.466;7.260;2022-12-15T02:16:37;22.30;29.80
75648;DHT22;64238;51.466;7.260;2022-12-15T02:27:18;22.30;29.90
75648;DHT22;64238;51.466;7.260;2022-12-15T02:30:19;22.30;29.80
75648;DHT22;64238;51.466;7.260;2022-12-15T02:33:12;22.20;30.00
75648;DHT22;64238;51.466;7.260;2022-12-15T02:35:55;22.20;29.60
75648;DHT22;64238;51.466;7.260;2022-12-15T02:38:35;22.20;29.80
75648;DHT22;64238;51.466;7.260;2022-12-15T02:41:03;22.30;29.60
75648;DHT22;64238;51.466;7.260;2022-12-15T02:43:31;22.20;29.80
75648;DHT22;64238;51.466;7.260;2022-12-15T02:46:13;22.30;29.80
75648;DHT22;64238;51.466;7.260;2022-12-15T02:48:48;22.20;29.80
75648;DHT22;64238;51.466;7.260;2022-12-15T02:56:42;22.30;29.60
75648;DHT22;64238;51.466;7.260;2022-12-15T02:59:44;22.20;29.50
75648;DHT22;64238;51.466;7.260;2022-12-15T03:02:11;22.30;29.50
75648;DHT22;64238;51.466;7.260;2022-12-15T03:04:38;22.20;29.80
75648;DHT22;64238;51.466;7.260;2022-12-15T03:07:07;22.20;29.60
75648;DHT22;64238;51.466;7.260;2022-12-15T03:09:34;22.30;29.50
75648;DHT22;64238;51.466;7.260;2022-12-15T03:12:00;22.20;29.50
75648;DHT22;64238;51.466;7.260;2022-12-15T03:14:25;22.20;29.60
75648;DHT22;64238;51.466;7.260;2022-12-15T03:16:52;22.20;29.50
75648;DHT22;64238;51.466;7.260;2022-12-15T03:19:18;22.30;29.40
75648;DHT22;64238;51.466;7.260;2022-12-15T03:21:43;22.20;29.60
75648;DHT22;64238;51.466;7.260;2022-12-15T03:24:09;22.30;29.30
75648;DHT22;64238;51.466;7.260;2022-12-15T03:26:35;22.20;29.50
75648;DHT22;64238;51.466;7.260;2022-12-15T03:29:01;22.30;29.50
75648;DHT22;64238;51.466;7.260;2022-12-15T03:31:26;22.30;29.50
75648;DHT22;64238;51.466;7.260;2022-12-15T03:33:52;22.30;29.70
75648;DHT22;64238;51.466;7.260;2022-12-15T03:36:18;22.20;29.80
75648;DHT22;64238;51.466;7.260;2022-12-15T03:38:43;22.20;29.50
75648;DHT22;64238;51.466;7.260;2022-12-15T03:41:09;22.20;29.60
75648;DHT22;64238;51.466;7.260;2022-12-15T03:43:34;22.20;29.20
75648;DHT22;64238;51.466;7.260;2022-12-15T03:46:00;22.20;29.60
75648;DHT22;64238;51.466;7.260;2022-12-15T03:48:25;22.30;29.50
75648;DHT22;64238;51.466;7.260;2022-12-15T03:50:51;22.30;29.70
75648;DHT22;64238;51.466;7.260;2022-12-15T03:53:17;22.20;29.40
75648;DHT22;64238;51.466;7.260;2022-12-15T03:55:42;22.30;29.50
75648;DHT22;64238;51.466;7.260;2022-12-15T03:58:08;22.30;29.40
75648;DHT22;64238;51.466;7.260;2022-12-15T04:00:33;22.10;29.40
75648;DHT22;64238;51.466;7.260;2022-12-15T04:02:59;22.20;29.50
75648;DHT22;64238;51.466;7.260;2022-12-15T04:05:29;22.30;29.50
75648;DHT22;64238;51.466;7.260;2022-12-15T04:07:57;22.20;29.40
75648;DHT22;64238;51.466;7.260;2022-12-15T04:10:24;22.20;29.40
75648;DHT22;64238;51.466;7.260;2022-12-15T04:13:05;22.20;29.50
75648;DHT22;64238;51.466;7.260;2022-12-15T04:15:31;22.20;29.40
75648;DHT22;64238;51.466;7.260;2022-12-15T04:17:57;22.20;29.60
75648;DHT22;64238;51.466;7.260;2022-12-15T04:20:23;22.20;29.10
75648;DHT22;64238;51.466;7.260;2022-12-15T04:22:49;22.20;29.60
75648;DHT22;64238;51.466;7.260;2022-12-15T04:25:17;22.10;29.40
75648;DHT22;64238;51.466;7.260;2022-12-15T04:28:03;22.20;29.30
75648;DHT22;64238;51.466;7.260;2022-12-15T04:33:52;22.10;29.10
75648;DHT22;64238;51.466;7.260;2022-12-15T04:36:39;22.20;29.40
75648;DHT22;64238;51.466;7.260;2022-12-15T04:39:25;22.20;29.40
75648;DHT22;64238;51.466;7.260;2022-12-15T04:42:10;22.10;29.40
75648;DHT22;64238;51.466;7.260;2022-12-15T04:44:57;22.10;29.30
75648;DHT22;64238;51.466;7.260;2022-12-15T04:47:24;22.10;29.50
75648;DHT22;64238;51.466;7.260;2022-12-15T04:50:09;22.10;29.30
75648;DHT22;64238;51.466;7.260;2022-12-15T04:52:53;22.20;29.50
75648;DHT22;64238;51.466;7.260;2022-12-15T04:55:37;22.10;29.40
75648;DHT22;64238;51.466;7.260;2022-12-15T04:58:21;22.10;29.50
75648;DHT22;64238;51.466;7.260;2022-12-15T05:01:05;22.10;29.60
75648;DHT22;64238;51.466;7.260;2022-12-15T05:03:49;22.10;29.10
75648;DHT22;64238;51.466;7.260;2022-12-15T05:06:34;22.10;29.30
75648;DHT22;64238;51.466;7.260;2022-12-15T05:09:17;22.10;29.20
75648;DHT22;64238;51.466;7.260;2022-12-15T05:12:01;22.20;29.20
75648;DHT22;64238;51.466;7.260;2022-12-15T05:14:45;22.20;29.30
75648;DHT22;64238;51.466;7.260;2022-12-15T05:17:29;22.10;29.30
75648;DHT22;64238;51.466;7.260;2022-12-15T05:20:13;22.10;29.30
75648;DHT22;64238;51.466;7.260;2022-12-15T05:22:57;22.20;29.20
75648;DHT22;64238;51.466;7.260;2022-12-15T05:25:42;22.10;29.50
75648;DHT22;64238;51.466;7.260;2022-12-15T05:28:26;22.10;29.30
75648;DHT22;64238;51.466;7.260;2022-12-15T05:31:11;22.10;29.30
75648;DHT22;64238;51.466;7.260;2022-12-15T05:33:55;22.00;29.30
75648;DHT22;64238;51.466;7.260;2022-12-15T05:36:21;22.10;29.20
75648;DHT22;64238;51.466;7.260;2022-12-15T05:38:51;22.10;29.20
75648;DHT22;64238;51.466;7.260;2022-12-15T05:41:17;22.20;29.30
75648;DHT22;64238;51.466;7.260;2022-12-15T05:43:44;22.20;29.30
75648;DHT22;64238;51.466;7.260;2022-12-15T05:46:09;22.10;29.30
75648;DHT22;64238;51.466;7.260;2022-12-15T05:48:35;22.20;29.20
75648;DHT22;64238;51.466;7.260;2022-12-15T05:51:05;22.10;29.20
75648;DHT22;64238;51.466;7.260;2022-12-15T05:53:32;22.10;29.40
75648;DHT22;64238;51.466;7.260;2022-12-15T05:56:06;22.20;29.40
75648;DHT22;64238;51.466;7.260;2022-12-15T05:58:31;22.10;29.20
75648;DHT22;64238;51.466;7.260;2022-12-15T06:01:09;22.20;29.20
75648;DHT22;64238;51.466;7.260;2022-12-15T06:03:36;22.10;29.20
75648;DHT22;64238;51.466;7.260;2022-12-15T06:06:04;22.10;29.30
75648;DHT22;64238;51.466;7.260;2022-12-15T06:08:32;22.00;29.60
75648;DHT22;64238;51.466;7.260;2022-12-15T06:10:59;22.20;29.30
75648;DHT22;64238;51.466;7.260;2022-12-15T06:13:25;22.20;29.60
75648;DHT22;64238;51.466;7.260;2022-12-15T06:16:00;22.10;29.40
75648;DHT22;64238;51.466;7.260;2022-12-15T06:18:31;22.10;29.60
75648;DHT22;64238;51.466;7.260;2022-12-15T06:21:03;22.10;29.50
75648;DHT22;64238;51.466;7.260;2022-12-15T06:23:29;22.20;29.80
75648;DHT22;64238;51.466;7.260;2022-12-15T06:25:57;22.20;30.20
75648;DHT22;64238;51.466;7.260;2022-12-15T06:28:23;22.20;30.50
75648;DHT22;64238;51.466;7.260;2022-12-15T06:30:53;22.20;30.40
75648;DHT22;64238;51.466;7.260;2022-12-15T06:33:20;22.20;30.80
75648;DHT22;64238;51.466;7.260;2022-12-15T06:35:46;22.20;30.60
75648;DHT22;64238;51.466;7.260;2022-12-15T06:38:12;22.20;31.10
75648;DHT22;64238;51.466;7.260;2022-12-15T06:40:38;22.20;32.00
75648;DHT22;64238;51.466;7.260;2022-12-15T06:43:04;22.30;32.60
75648;DHT22;64238;51.466;7.260;2022-12-15T06:45:30;22.20;33.20
75648;DHT22;64238;51.466;7.260;2022-12-15T06:47:55;22.30;33.40
75648;DHT22;64238;51.466;7.260;2022-12-15T06:50:21;22.20;32.90
75648;DHT22;64238;51.466;7.260;2022-12-15T06:52:49;22.30;32.50
75648;DHT22;64238;51.466;7.260;2022-12-15T06:55:15;22.20;32.30
75648;DHT22;64238;51.466;7.260;2022-12-15T06:57:40;22.30;32.50
75648;DHT22;64238;51.466;7.260;2022-12-15T07:00:06;22.20;32.30
75648;DHT22;64238;51.466;7.260;2022-12-15T07:02:32;22.20;32.10
75648;DHT22;64238;51.466;7.260;2022-12-15T07:04:58;22.30;31.90
75648;DHT22;64238;51.466;7.260;2022-12-15T07:07:24;22.30;31.80
75648;DHT22;64238;51.466;7.260;2022-12-15T07:09:50;22.30;31.60
75648;DHT22;64238;51.466;7.260;2022-12-15T07:12:16;22.40;31.30
75648;DHT22;64238;51.466;7.260;2022-12-15T07:14:42;22.30;31.50
75648;DHT22;64238;51.466;7.260;2022-12-15T07:17:08;22.40;31.20
75648;DHT22;64238;51.466;7.260;2022-12-15T07:19:35;22.30;31.30
75648;DHT22;64238;51.466;7.260;2022-12-15T07:22:01;22.30;31.30
75648;DHT22;64238;51.466;7.260;2022-12-15T07:24:26;22.30;31.00
75648;DHT22;64238;51.466;7.260;2022-12-15T07:26:52;22.40;30.80
75648;DHT22;64238;51.466;7.260;2022-12-15T07:29:17;22.30;31.10
75648;DHT22;64238;51.466;7.260;2022-12-15T07:31:43;22.40;31.30
75648;DHT22;64238;51.466;7.260;2022-12-15T07:34:08;22.30;30.80
75648;DHT22;64238;51.466;7.260;2022-12-15T07:36:34;22.30;30.90
75648;DHT22;64238;51.466;7.260;2022-12-15T07:39:00;22.40;31.00
75648;DHT22;64238;51.466;7.260;2022-12-15T07:41:28;22.40;30.80
75648;DHT22;64238;51.466;7.260;2022-12-15T07:43:54;22.40;30.70
75648;DHT22;64238;51.466;7.260;2022-12-15T07:46:20;22.30;30.70
75648;DHT22;64238;51.466;7.260;2022-12-15T07:48:45;22.40;30.50
75648;DHT22;64238;51.466;7.260;2022-12-15T07:51:11;22.40;30.30
75648;DHT22;64238;51.466;7.260;2022-12-15T07:53:37;22.40;30.40
75648;DHT22;64238;51.466;7.260;2022-12-15T07:56:04;22.50;30.30
75648;DHT22;64238;51.466;7.260;2022-12-15T07:58:31;22.30;30.30
75648;DHT22;64238;51.466;7.260;2022-12-15T08:01:01;22.40;30.30
75648;DHT22;64238;51.466;7.260;2022-12-15T08:03:27;22.40;30.10
75648;DHT22;64238;51.466;7.260;2022-12-15T08:05:53;22.50;30.20
75648;DHT22;64238;51.466;7.260;2022-12-15T08:08:19;22.50;30.10
75648;DHT22;64238;51.466;7.260;2022-12-15T08:10:44;22.50;30.20
75648;DHT22;64238;51.466;7.260;2022-12-15T08:13:11;22.40;30.20
75648;DHT22;64238;51.466;7.260;2022-12-15T08:15:37;22.50;30.10
75648;DHT22;64238;51.466;7.260;2022-12-15T08:18:04;22.50;30.20
75648;DHT22;64238;51.466;7.260;2022-12-15T08:20:29;22.50;30.40
75648;DHT22;64238;51.466;7.260;2022-12-15T08:22:55;22.50;30.30
75648;DHT22;64238;51.466;7.260;2022-12-15T08:25:21;22.60;30.40
75648;DHT22;64238;51.466;7.260;2022-12-15T08:27:49;22.50;30.30
75648;DHT22;64238;51.466;7.260;2022-12-15T08:30:15;22.50;30.10
75648;DHT22;64238;51.466;7.260;2022-12-15T08:32:40;22.50;30.30
75648;DHT22;64238;51.466;7.260;2022-12-15T08:35:06;22.60;30.00
75648;DHT22;64238;51.466;7.260;2022-12-15T08:37:33;22.70;29.90
75648;DHT22;64238;51.466;7.260;2022-12-15T08:39:58;22.60;30.10
75648;DHT22;64238;51.466;7.260;2022-12-15T08:42:24;22.70;30.10
75648;DHT22;64238;51.466;7.260;2022-12-15T08:44:50;22.60;29.90
75648;DHT22;64238;51.466;7.260;2022-12-15T08:47:15;22.70;29.90
75648;DHT22;64238;51.466;7.260;2022-12-15T08:49:41;22.80;30.00
75648;DHT22;64238;51.466;7.260;2022-12-15T08:52:07;22.70;29.90
75648;DHT22;64238;51.466;7.260;2022-12-15T08:54:33;22.70;30.20
75648;DHT22;64238;51.466;7.260;2022-12-15T08:56:58;22.80;29.90
75648;DHT22;64238;51.466;7.260;2022-12-15T08:59:24;22.80;29.90
75648;DHT22;64238;51.466;7.260;2022-12-15T09:01:50;22.90;30.20
75648;DHT22;64238;51.466;7.260;2022-12-15T09:04:16;22.70;30.10
75648;DHT22;64238;51.466;7.260;2022-12-15T09:06:42;22.80;30.10
75648;DHT22;64238;51.466;7.260;2022-12-15T09:09:10;22.90;30.20
75648;DHT22;64238;51.466;7.260;2022-12-15T09:11:36;22.90;30.40
75648;DHT22;64238;51.466;7.260;2022-12-15T09:14:02;22.80;30.30
75648;DHT22;64238;51.466;7.260;2022-12-15T09:16:28;22.90;30.30
75648;DHT22;64238;51.466;7.260;2022-12-15T09:18:55;22.90;30.50
75648;DHT22;64238;51.466;7.260;2022-12-15T09:21:23;23.00;30.50
75648;DHT22;64238;51.466;7.260;2022-12-15T09:23:51;23.00;30.70
75648;DHT22;64238;51.466;7.260;2022-12-15T09:26:22;23.00;30.40
75648;DHT22;64238;51.466;7.260;2022-12-15T09:28:49;22.90;30.50
75648;DHT22;64238;51.466;7.260;2022-12-15T09:31:24;23.00;30.70
75648;DHT22;64238;51.466;7.260;2022-12-15T09:33:51;23.00;30.40
75648;DHT22;64238;51.466;7.260;2022-12-15T09:36:18;23.00;30.50
75648;DHT22;64238;51.466;7.260;2022-12-15T09:38:44;23.10;30.50
75648;DHT22;64238;51.466;7.260;2022-12-15T09:43:56;23.10;30.70
75648;DHT22;64238;51.466;7.260;2022-12-15T09:46:29;23.00;30.60
75648;DHT22;64238;51.466;7.260;2022-12-15T09:49:02;23.10;30.80
75648;DHT22;64238;51.466;7.260;2022-12-15T09:51:34;23.10;30.70
75648;DHT22;64238;51.466;7.260;2022-12-15T09:54:00;23.10;30.40
75648;DHT22;64238;51.466;7.260;2022-12-15T09:56:41;23.10;30.70
75648;DHT22;64238;51.466;7.260;2022-12-15T09:59:32;23.10;30.50
75648;DHT22;64238;51.466;7.260;2022-12-15T10:02:27;23.20;30.40
75648;DHT22;64238;51.466;7.260;2022-12-15T10:07:58;23.10;30.60
75648;DHT22;64238;51.466;7.260;2022-12-15T10:10:39;23.10;30.70
75648;DHT22;64238;51.466;7.260;2022-12-15T10:13:18;23.10;30.40
75648;DHT22;64238;51.466;7.260;2022-12-15T10:15:59;23.10;30.60
75648;DHT22;64238;51.466;7.260;2022-12-15T10:18:39;23.20;30.60
75648;DHT22;64238;51.466;7.260;2022-12-15T10:21:10;23.20;30.70
75648;DHT22;64238;51.466;7.260;2022-12-15T10:23:38;23.10;30.60
75648;DHT22;64238;51.466;7.260;2022-12-15T10:26:20;23.20;30.50
75648;DHT22;64238;51.466;7.260;2022-12-15T10:31:41;23.20;30.60
75648;DHT22;64238;51.466;7.260;2022-12-15T10:34:21;23.10;30.70
75648;DHT22;64238;51.466;7.260;2022-12-15T10:36:52;23.10;30.50
75648;DHT22;64238;51.466;7.260;2022-12-15T10:39:19;23.10;30.70
75648;DHT22;64238;51.466;7.260;2022-12-15T10:41:45;23.20;30.60
75648;DHT22;64238;51.466;7.260;2022-12-15T10:44:36;23.20;30.00
75648;DHT22;64238;51.466;7.260;2022-12-15T10:47:30;23.30;30.10
75648;DHT22;64238;51.466;7.260;2022-12-15T10:50:20;23.20;30.20
75648;DHT22;64238;51.466;7.260;2022-12-15T10:52:46;23.20;30.10
75648;DHT22;64238;51.466;7.260;2022-12-15T10:55:40;23.20;30.10
75648;DHT22;64238;51.466;7.260;2022-12-15T10:58:17;23.20;30.20
75648;DHT22;64238;51.466;7.260;2022-12-15T11:00:43;23.20;30.20
75648;DHT22;64238;51.466;7.260;2022-12-15T11:03:21;23.20;29.90
75648;DHT22;64238;51.466;7.260;2022-12-15T11:05:53;23.20;30.00
75648;DHT22;64238;51.466;7.260;2022-12-15T11:08:19;23.20;29.80
75648;DHT22;64238;51.466;7.260;2022-12-15T11:10:55;23.20;30.00
75648;DHT22;64238;51.466;7.260;2022-12-15T11:13:39;23.30;29.80
75648;DHT22;64238;51.466;7.260;2022-12-15T11:16:16;23.30;29.90
75648;DHT22;64238;51.466;7.260;2022-12-15T11:18:58;23.40;29.60
75648;DHT22;64238;51.466;7.260;2022-12-15T11:21:35;23.40;29.80
75648;DHT22;64238;51.466;7.260;2022-12-15T11:24:32;23.40;29.80
75648;DHT22;64238;51.466;7.260;2022-12-15T11:32:23;23.40;29.40
75648;DHT22;64238;51.466;7.260;2022-12-15T11:34:49;23.40;29.80
75648;DHT22;64238;51.466;7.260;2022-12-15T11:37:43;23.40;29.60
75648;DHT22;64238;51.466;7.260;2022-12-15T11:40:37;23.50;29.60
75648;DHT22;64238;51.466;7.260;2022-12-15T11:49:01;23.40;29.70
75648;DHT22;64238;51.466;7.260;2022-12-15T11:51:40;23.40;29.40
75648;DHT22;64238;51.466;7.260;2022-12-15T12:00:15;23.50;29.60
75648;DHT22;64238;51.466;7.260;2022-12-15T12:03:09;23.40;29.70
75648;DHT22;64238;51.466;7.260;2022-12-15T12:05:58;23.40;29.70
75648;DHT22;64238;51.466;7.260;2022-12-15T12:08:40;23.40;29.60
75648;DHT22;64238;51.466;7.260;2022-12-15T12:11:18;23.40;29.80
75648;DHT22;64238;51.466;7.260;2022-12-15T12:14:15;23.40;29.70
75648;DHT22;64238;51.466;7.260;2022-12-15T12:17:03;23.40;29.80
75648;DHT22;64238;51.466;7.260;2022-12-15T12:19:36;23.50;29.80
75648;DHT22;64238;51.466;7.260;2022-12-15T12:22:11;23.60;29.60
75648;DHT22;64238;51.466;7.260;2022-12-15T12:24:47;23.70;29.00
75648;DHT22;64238;51.466;7.260;2022-12-15T12:27:34;23.60;29.00
75648;DHT22;64238;51.466;7.260;2022-12-15T12:38:06;23.90;28.90
75648;DHT22;64238;51.466;7.260;2022-12-15T12:43:31;23.80;28.90
75648;DHT22;64238;51.466;7.260;2022-12-15T12:46:21;23.80;29.10
75648;DHT22;64238;51.466;7.260;2022-12-15T12:48:59;23.80;29.20
75648;DHT22;64238;51.466;7.260;2022-12-15T12:51:39;23.80;29.20
75648;DHT22;64238;51.466;7.260;2022-12-15T12:54:47;23.90;29.20
75648;DHT22;64238;51.466;7.260;2022-12-15T12:59:41;24.10;28.90
75648;DHT22;64238;51.466;7.260;2022-12-15T13:04:40;24.10;29.00
75648;DHT22;64238;51.466;7.260;2022-12-15T13:07:30;24.20;29.10
75648;DHT22;64238;51.466;7.260;2022-12-15T13:12:49;24.20;29.10
75648;DHT22;64238;51.466;7.260;2022-12-15T13:15:41;24.10;29.30
75648;DHT22;64238;51.466;7.260;2022-12-15T13:18:23;24.20;29.50
75648;DHT22;64238;51.466;7.260;2022-12-15T13:20:53;24.10;29.20
75648;DHT22;64238;51.466;7.260;2022-12-15T13:38:59;24.10;29.30
75648;DHT22;64238;51.466;7.260;2022-12-15T13:41:25;24.00;29.50
75648;DHT22;64238;51.466;7.260;2022-12-15T13:43:52;24.10;29.50
75648;DHT22;64238;51.466;7.260;2022-12-15T13:46:27;24.10;29.70
75648;DHT22;64238;51.466;7.260;2022-12-15T13:49:06;24.30;29.50
75648;DHT22;64238;51.466;7.260;2022-12-15T13:51:43;24.10;29.40
75648;DHT22;64238;51.466;7.260;2022-12-15T13:54:20;24.10;29.70
75648;DHT22;64238;51.466;7.260;2022-12-15T13:56:52;24.00;29.70
75648;DHT22;64238;51.466;7.260;2022-12-15T13:59:30;24.10;29.50
75648;DHT22;64238;51.466;7.260;2022-12-15T14:02:00;24.00;29.50
75648;DHT22;64238;51.466;7.260;2022-12-15T14:04:26;24.00;29.60
75648;DHT22;64238;51.466;7.260;2022-12-15T14:06:57;24.00;29.60
75648;DHT22;64238;51.466;7.260;2022-12-15T14:09:33;23.90;29.40
75648;DHT22;64238;51.466;7.260;2022-12-15T14:12:01;23.90;29.50
75648;DHT22;64238;51.466;7.260;2022-12-15T14:14:30;23.90;29.40
75648;DHT22;64238;51.466;7.260;2022-12-15T14:17:02;23.90;29.50
75648;DHT22;64238;51.466;7.260;2022-12-15T14:19:42;23.90;29.40
75648;DHT22;64238;51.466;7.260;2022-12-15T14:22:23;23.80;29.40
75648;DHT22;64238;51.466;7.260;2022-12-15T14:24:50;23.90;29.40
75648;DHT22;64238;51.466;7.260;2022-12-15T14:27:23;24.00;29.40
75648;DHT22;64238;51.466;7.260;2022-12-15T14:29:49;23.90;29.40
75648;DHT22;64238;51.466;7.260;2022-12-15T14:32:14;23.90;29.40
75648;DHT22;64238;51.466;7.260;2022-12-15T14:34:42;23.90;29.30
75648;DHT22;64238;51.466;7.260;2022-12-15T14:37:17;23.90;29.50
75648;DHT22;64238;51.466;7.260;2022-12-15T14:39:46;24.00;29.20
75648;DHT22;64238;51.466;7.260;2022-12-15T14:42:25;23.90;29.30
75648;DHT22;64238;51.466;7.260;2022-12-15T14:44:51;24.00;29.10
75648;DHT22;64238;51.466;7.260;2022-12-15T14:47:24;23.90;29.00
75648;DHT22;64238;51.466;7.260;2022-12-15T14:49:52;23.90;29.20
75648;DHT22;64238;51.466;7.260;2022-12-15T14:52:34;23.80;29.30
75648;DHT22;64238;51.466;7.260;2022-12-15T14:57:46;23.90;29.40
75648;DHT22;64238;51.466;7.260;2022-12-15T15:05:40;23.90;29.20
75648;DHT22;64238;51.466;7.260;2022-12-15T15:08:31;23.90;29.10
75648;DHT22;64238;51.466;7.260;2022-12-15T15:11:15;23.90;29.10
75648;DHT22;64238;51.466;7.260;2022-12-15T15:13:42;23.90;29.20
75648;DHT22;64238;51.466;7.260;2022-12-15T15:16:17;23.80;29.30
75648;DHT22;64238;51.466;7.260;2022-12-15T15:18:47;23.80;29.20
75648;DHT22;64238;51.466;7.260;2022-12-15T15:21:20;23.80;29.10
75648;DHT22;64238;51.466;7.260;2022-12-15T15:24:17;23.90;29.10
75648;DHT22;64238;51.466;7.260;2022-12-15T15:26:44;23.80;29.20
75648;DHT22;64238;51.466;7.260;2022-12-15T15:34:32;23.80;29.10
75648;DHT22;64238;51.466;7.260;2022-12-15T15:36:57;23.90;29.30
75648;DHT22;64238;51.466;7.260;2022-12-15T15:39:25;23.80;29.30
75648;DHT22;64238;51.466;7.260;2022-12-15T15:41:51;23.80;29.00
75648;DHT22;64238;51.466;7.260;2022-12-15T15:44:16;23.80;29.40
75648;DHT22;64238;51.466;7.260;2022-12-15T15:46:45;23.80;29.00
75648;DHT22;64238;51.466;7.260;2022-12-15T15:49:15;23.90;29.00
75648;DHT22;64238;51.466;7.260;2022-12-15T15:51:42;23.90;29.20
75648;DHT22;64238;51.466;7.260;2022-12-15T15:54:13;24.00;29.20
75648;DHT22;64238;51.466;7.260;2022-12-15T15:56:38;23.90;29.10
75648;DHT22;64238;51.466;7.260;2022-12-15T15:59:11;23.80;29.10
75648;DHT22;64238;51.466;7.260;2022-12-15T16:01:36;23.80;29.20
75648;DHT22;64238;51.466;7.260;2022-12-15T16:04:02;23.70;29.10
75648;DHT22;64238;51.466;7.260;2022-12-15T16:06:28;23.70;29.20
75648;DHT22;64238;51.466;7.260;2022-12-15T16:08:53;23.80;29.30
75648;DHT22;64238;51.466;7.260;2022-12-15T16:11:23;23.70;29.30
75648;DHT22;64238;51.466;7.260;2022-12-15T16:13:49;23.70;29.20
75648;DHT22;64238;51.466;7.260;2022-12-15T16:16:20;23.70;29.10
75648;DHT22;64238;51.466;7.260;2022-12-15T16:18:46;23.80;29.10
75648;DHT22;64238;51.466;7.260;2022-12-15T16:21:13;23.80;29.30
75648;DHT22;64238;51.466;7.260;2022-12-15T16:23:39;23.80;29.20
75648;DHT22;64238;51.466;7.260;2022-12-15T16:26:09;23.80;29.10
75648;DHT22;64238;51.466;7.260;2022-12-15T16:28:37;23.80;29.10
75648;DHT22;64238;51.466;7.260;2022-12-15T16:31:02;23.80;29.30
75648;DHT22;64238;51.466;7.260;2022-12-15T16:33:28;23.90;29.50
75648;DHT22;64238;51.466;7.260;2022-12-15T16:35:53;23.90;29.00
75648;DHT22;64238;51.466;7.260;2022-12-15T16:38:24;23.80;29.50
75648;DHT22;64238;51.466;7.260;2022-12-15T16:40:51;23.80;29.40
75648;DHT22;64238;51.466;7.260;2022-12-15T16:43:20;23.90;29.30
75648;DHT22;64238;51.466;7.260;2022-12-15T16:45:48;23.80;29.10
75648;DHT22;64238;51.466;7.260;2022-12-15T16:48:14;23.90;29.20
75648;DHT22;64238;51.466;7.260;2022-12-15T16:50:46;23.90;29.00
75648;DHT22;64238;51.466;7.260;2022-12-15T16:53:22;23.90;29.30
75648;DHT22;64238;51.466;7.260;2022-12-15T16:55:57;23.80;29.30
75648;DHT22;64238;51.466;7.260;2022-12-15T16:58:24;23.80;29.20
75648;DHT22;64238;51.466;7.260;2022-12-15T17:00:50;23.80;29.50
75648;DHT22;64238;51.466;7.260;2022-12-15T17:03:17;23.70;29.80
75648;DHT22;64238;51.466;7.260;2022-12-15T17:05:47;23.80;29.70
75648;DHT22;64238;51.466;7.260;2022-12-15T17:08:16;23.80;29.90
75648;DHT22;64238;51.466;7.260;2022-12-15T17:10:44;23.80;29.60
75648;DHT22;64238;51.466;7.260;2022-12-15T17:13:27;23.70;29.80
75648;DHT22;64238;51.466;7.260;2022-12-15T17:15:55;23.90;29.70
75648;DHT22;64238;51.466;7.260;2022-12-15T17:18:21;23.80;30.00
75648;DHT22;64238;51.466;7.260;2022-12-15T17:20:47;23.90;29.80
75648;DHT22;64238;51.466;7.260;2022-12-15T17:23:19;22.80;30.40
75648;DHT22;64238;51.466;7.260;2022-12-15T17:25:48;21.20;31.20
75648;DHT22;64238;51.466;7.260;2022-12-15T17:28:21;20.10;32.60
75648;DHT22;64238;51.466;7.260;2022-12-15T17:30:48;19.80;34.10
75648;DHT22;64238;51.466;7.260;2022-12-15T17:33:23;20.40;33.40
75648;DHT22;64238;51.466;7.260;2022-12-15T17:35:54;20.90;32.80
75648;DHT22;64238;51.466;7.260;2022-12-15T17:38:21;21.40;32.10